sensor_id;sensor_type;location;lat;lon;timestamp;temperature;humidity
3644;DHT22;1838;50.742;7.158;2024-03-07T00:01:17;5.10;99.90
3644;DHT22;1838;50.742;7.158;2024-03-07T00:03:42;5.10;99.90
3644;DHT22;1838;50.742;7.158;2024-03-07T00:06:10;5.00;99.90
3644;DHT22;1838;50.742;7.158;2024-03-07T00:08:35;5.00;99.90
3644;DHT22;1838;50.742;7.158;2024-03-07T00:11:01;5.00;99.90
3644;DHT22;1838;50.742;7.158;2024-03-07T00:13:27;5.00;99.90
3644;DHT22;1838;50.742;7.158;2024-03-07T00:15:53;5.00;99.90
3644;DHT22;1838;50.742;7.158;2024-03-07T00:18:18;5.10;99.90
3644;DHT22;1838;50.742;7.158;2024-03-07T00:20:44;5.10;99.90
3644;DHT22;1838;50.742;7.158;2024-03-07T00:23:10;5.20;99.90
3644;DHT22;1838;50.742;7.158;2024-03-07T00:25:35;5.20;99.90
3644;DHT22;1838;50.742;7.158;2024-03-07T00:28:01;5.20;99.90
3644;DHT22;1838;50.742;7.158;2024-03-07T00:30:29;5.20;99.90
3644;DHT22;1838;50.742;7.158;2024-03-07T00:32:56;5.20;99.90
3644;DHT22;1838;50.742;7.158;2024-03-07T00:35:22;5.30;99.90
3644;DHT22;1838;50.742;7.158;2024-03-07T00:37:47;5.20;99.90
3644;DHT22;1838;50.742;7.158;2024-03-07T00:40:13;5.20;99.90
3644;DHT22;1838;50.742;7.158;2024-03-07T00:42:38;5.10;99.90
3644;DHT22;1838;50.742;7.158;2024-03-07T00:45:05;5.10;99.90
3644;DHT22;1838;50.742;7.158;2024-03-07T00:47:30;5.10;99.90
3644;DHT22;1838;50.742;7.158;2024-03-07T00:49:57;5.10;99.90
3644;DHT22;1838;50.742;7.158;2024-03-07T00:52:23;5.00;99.90
3644;DHT22;1838;50.742;7.158;2024-03-07T00:54:48;5.00;99.90
3644;DHT22;1838;50.742;7.158;2024-03-07T00:57:15;5.00;99.90
3644;DHT22;1838;50.742;7.158;2024-03-07T00:59:40;5.00;99.90
3644;DHT22;1838;50.742;7.158;2024-03-07T01:02:06;4.90;99.90
3644;DHT22;1838;50.742;7.158;2024-03-07T01:04:32;4.80;99.90
3644;DHT22;1838;50.742;7.158;2024-03-07T01:06:59;4.80;99.90
3644;DHT22;1838;50.742;7.158;2024-03-07T01:09:26;4.80;99.90
3644;DHT22;1838;50.742;7.158;2024-03-07T01:11:53;4.80;99.90
3644;DHT22;1838;50.742;7.158;2024-03-07T01:14:20;4.80;99.90
3644;DHT22;1838;50.742;7.158;2024-03-07T01:16:46;4.70;99.90
3644;DHT22;1838;50.742;7.158;2024-03-07T01:19:12;4.70;99.90
3644;DHT22;1838;50.742;7.158;2024-03-07T01:21:38;4.70;99.90
3644;DHT22;1838;50.742;7.158;2024-03-07T01:24:04;4.60;99.90
3644;DHT22;1838;50.742;7.158;2024-03-07T01:26:30;4.60;99.90
3644;DHT22;1838;50.742;7.158;2024-03-07T01:28:59;4.50;99.90
3644;DHT22;1838;50.742;7.158;2024-03-07T01:31:25;4.50;99.90
3644;DHT22;1838;50.742;7.158;2024-03-07T01:33:51;4.50;99.90
3644;DHT22;1838;50.742;7.158;2024-03-07T01:36:18;4.50;99.90
3644;DHT22;1838;50.742;7.158;2024-03-07T01:38:43;4.50;99.90
3644;DHT22;1838;50.742;7.158;2024-03-07T01:41:09;4.40;99.90
3644;DHT22;1838;50.742;7.158;2024-03-07T01:43:34;4.40;99.90
3644;DHT22;1838;50.742;7.158;2024-03-07T01:46:00;4.30;99.90
3644;DHT22;1838;50.742;7.158;2024-03-07T01:48:27;4.30;99.90
3644;DHT22;1838;50.742;7.158;2024-03-07T01:50:54;4.20;99.90
3644;DHT22;1838;50.742;7.158;2024-03-07T01:53:21;4.20;99.90
3644;DHT22;1838;50.742;7.158;2024-03-07T01:55:48;4.10;99.90
3644;DHT22;1838;50.742;7.158;2024-03-07T01:58:16;4.10;99.90
3644;DHT22;1838;50.742;7.158;2024-03-07T02:00:43;4.10;99.90
3644;DHT22;1838;50.742;7.158;2024-03-07T02:03:09;4.10;99.90
3644;DHT22;1838;50.742;7.158;2024-03-07T02:05:35;4.00;99.90
3644;DHT22;1838;50.742;7.158;2024-03-07T02:08:00;4.00;99.90
3644;DHT22;1838;50.742;7.158;2024-03-07T02:10:29;4.00;99.90
3644;DHT22;1838;50.742;7.158;2024-03-07T02:12:55;4.00;99.90
3644;DHT22;1838;50.742;7.158;2024-03-07T02:15:21;3.90;99.90
3644;DHT22;1838;50.742;7.158;2024-03-07T02:17:46;3.90;99.90
3644;DHT22;1838;50.742;7.158;2024-03-07T02:20:12;3.90;99.90
3644;DHT22;1838;50.742;7.158;2024-03-07T02:22:38;3.90;99.90
3644;DHT22;1838;50.742;7.158;2024-03-07T02:25:05;3.80;99.90
3644;DHT22;1838;50.742;7.158;2024-03-07T02:27:31;3.70;99.90
3644;DHT22;1838;50.742;7.158;2024-03-07T02:29:57;3.70;99.90
3644;DHT22;1838;50.742;7.158;2024-03-07T02:32:22;3.70;99.90
3644;DHT22;1838;50.742;7.158;2024-03-07T02:34:48;3.60;99.90
3644;DHT22;1838;50.742;7.158;2024-03-07T02:37:14;3.60;99.90
3644;DHT22;1838;50.742;7.158;2024-03-07T02:39:40;3.60;99.90
3644;DHT22;1838;50.742;7.158;2024-03-07T02:42:05;3.50;99.90
3644;DHT22;1838;50.742;7.158;2024-03-07T02:44:31;3.50;99.90
3644;DHT22;1838;50.742;7.158;2024-03-07T02:46:57;3.40;99.90
3644;DHT22;1838;50.742;7.158;2024-03-07T02:49:23;3.40;99.90
3644;DHT22;1838;50.742;7.158;2024-03-07T02:51:49;3.30;99.90
3644;DHT22;1838;50.742;7.158;2024-03-07T02:54:14;3.40;99.90
3644;DHT22;1838;50.742;7.158;2024-03-07T02:56:40;3.40;99.90
3644;DHT22;1838;50.742;7.158;2024-03-07T02:59:05;3.30;99.90
3644;DHT22;1838;50.742;7.158;2024-03-07T03:01:32;3.30;99.90
3644;DHT22;1838;50.742;7.158;2024-03-07T03:03:58;3.30;99.90
3644;DHT22;1838;50.742;7.158;2024-03-07T03:06:23;3.30;99.90
3644;DHT22;1838;50.742;7.158;2024-03-07T03:08:49;3.20;99.90
3644;DHT22;1838;50.742;7.158;2024-03-07T03:11:15;3.20;99.90
3644;DHT22;1838;50.742;7.158;2024-03-07T03:13:40;3.20;99.90
3644;DHT22;1838;50.742;7.158;2024-03-07T03:16:06;3.20;99.90
3644;DHT22;1838;50.742;7.158;2024-03-07T03:18:38;3.20;99.90
3644;DHT22;1838;50.742;7.158;2024-03-07T03:21:04;3.10;99.90
3644;DHT22;1838;50.742;7.158;2024-03-07T03:23:29;3.10;99.90
3644;DHT22;1838;50.742;7.158;2024-03-07T03:25:55;3.10;99.90
3644;DHT22;1838;50.742;7.158;2024-03-07T03:28:22;3.10;99.90
3644;DHT22;1838;50.742;7.158;2024-03-07T03:30:49;3.10;99.90
3644;DHT22;1838;50.742;7.158;2024-03-07T03:33:15;3.10;99.90
3644;DHT22;1838;50.742;7.158;2024-03-07T03:35:41;3.00;99.90
3644;DHT22;1838;50.742;7.158;2024-03-07T03:38:08;3.00;99.90
3644;DHT22;1838;50.742;7.158;2024-03-07T03:40:34;3.00;99.90
3644;DHT22;1838;50.742;7.158;2024-03-07T03:43:00;3.00;99.90
3644;DHT22;1838;50.742;7.158;2024-03-07T03:45:26;2.90;99.90
3644;DHT22;1838;50.742;7.158;2024-03-07T03:47:52;2.90;99.90
3644;DHT22;1838;50.742;7.158;2024-03-07T03:50:17;2.90;99.90
3644;DHT22;1838;50.742;7.158;2024-03-07T03:52:43;2.80;99.90
3644;DHT22;1838;50.742;7.158;2024-03-07T03:55:09;2.90;99.90
3644;DHT22;1838;50.742;7.158;2024-03-07T03:57:38;2.80;99.90
3644;DHT22;1838;50.742;7.158;2024-03-07T04:00:05;2.80;99.90
3644;DHT22;1838;50.742;7.158;2024-03-07T04:02:41;2.80;99.90
3644;DHT22;1838;50.742;7.158;2024-03-07T04:05:07;2.80;99.90
3644;DHT22;1838;50.742;7.158;2024-03-07T04:07:35;2.80;99.90
3644;DHT22;1838;50.742;7.158;2024-03-07T04:10:01;2.80;99.90
3644;DHT22;1838;50.742;7.158;2024-03-07T04:12:28;2.80;99.90
3644;DHT22;1838;50.742;7.158;2024-03-07T04:14:54;2.80;99.90
3644;DHT22;1838;50.742;7.158;2024-03-07T04:17:22;2.70;99.90
3644;DHT22;1838;50.742;7.158;2024-03-07T04:19:48;2.70;99.90
3644;DHT22;1838;50.742;7.158;2024-03-07T04:22:13;2.70;99.90
3644;DHT22;1838;50.742;7.158;2024-03-07T04:24:39;2.70;99.90
3644;DHT22;1838;50.742;7.158;2024-03-07T04:27:05;2.70;99.90
3644;DHT22;1838;50.742;7.158;2024-03-07T04:29:34;2.70;99.90
3644;DHT22;1838;50.742;7.158;2024-03-07T04:32:01;2.70;99.90
3644;DHT22;1838;50.742;7.158;2024-03-07T04:34:27;2.70;99.90
3644;DHT22;1838;50.742;7.158;2024-03-07T04:36:56;2.70;99.90
3644;DHT22;1838;50.742;7.158;2024-03-07T04:39:22;2.70;99.90
3644;DHT22;1838;50.742;7.158;2024-03-07T04:41:53;2.70;99.90
3644;DHT22;1838;50.742;7.158;2024-03-07T04:44:20;2.70;99.90
3644;DHT22;1838;50.742;7.158;2024-03-07T04:46:48;2.70;99.90
3644;DHT22;1838;50.742;7.158;2024-03-07T04:49:15;2.70;99.90
3644;DHT22;1838;50.742;7.158;2024-03-07T04:51:40;2.90;99.90
3644;DHT22;1838;50.742;7.158;2024-03-07T04:54:06;3.00;99.90
3644;DHT22;1838;50.742;7.158;2024-03-07T04:56:32;3.20;99.90
3644;DHT22;1838;50.742;7.158;2024-03-07T04:58:57;3.30;99.90
3644;DHT22;1838;50.742;7.158;2024-03-07T05:01:23;3.40;99.90
3644;DHT22;1838;50.742;7.158;2024-03-07T05:03:50;3.60;99.90
3644;DHT22;1838;50.742;7.158;2024-03-07T05:06:17;3.70;99.90
3644;DHT22;1838;50.742;7.158;2024-03-07T05:08:43;3.80;99.90
3644;DHT22;1838;50.742;7.158;2024-03-07T05:11:09;4.00;99.90
3644;DHT22;1838;50.742;7.158;2024-03-07T05:13:35;4.10;99.90
3644;DHT22;1838;50.742;7.158;2024-03-07T05:16:02;4.10;99.90
3644;DHT22;1838;50.742;7.158;2024-03-07T05:18:28;4.30;99.90
3644;DHT22;1838;50.742;7.158;2024-03-07T05:20:53;4.40;99.90
3644;DHT22;1838;50.742;7.158;2024-03-07T05:23:20;4.40;99.90
3644;DHT22;1838;50.742;7.158;2024-03-07T05:25:45;4.40;99.90
3644;DHT22;1838;50.742;7.158;2024-03-07T05:28:11;4.50;99.90
3644;DHT22;1838;50.742;7.158;2024-03-07T05:30:37;4.60;99.90
3644;DHT22;1838;50.742;7.158;2024-03-07T05:33:02;4.60;99.90
3644;DHT22;1838;50.742;7.158;2024-03-07T05:35:28;4.80;99.90
3644;DHT22;1838;50.742;7.158;2024-03-07T05:37:56;4.80;99.90
3644;DHT22;1838;50.742;7.158;2024-03-07T05:40:23;4.90;99.90
3644;DHT22;1838;50.742;7.158;2024-03-07T05:42:49;5.00;99.90
3644;DHT22;1838;50.742;7.158;2024-03-07T05:45:14;5.10;99.90
3644;DHT22;1838;50.742;7.158;2024-03-07T05:47:40;5.10;99.90
3644;DHT22;1838;50.742;7.158;2024-03-07T05:50:06;5.20;99.90
3644;DHT22;1838;50.742;7.158;2024-03-07T05:52:36;5.20;99.90
3644;DHT22;1838;50.742;7.158;2024-03-07T05:55:02;5.30;99.90
3644;DHT22;1838;50.742;7.158;2024-03-07T05:57:28;5.30;99.90
3644;DHT22;1838;50.742;7.158;2024-03-07T05:59:53;5.30;99.90
3644;DHT22;1838;50.742;7.158;2024-03-07T06:02:19;5.30;99.90
3644;DHT22;1838;50.742;7.158;2024-03-07T06:04:45;5.40;99.90
3644;DHT22;1838;50.742;7.158;2024-03-07T06:07:11;5.40;99.90
3644;DHT22;1838;50.742;7.158;2024-03-07T06:09:37;5.40;99.90
3644;DHT22;1838;50.742;7.158;2024-03-07T06:12:03;5.50;99.90
3644;DHT22;1838;50.742;7.158;2024-03-07T06:14:29;5.50;99.90
3644;DHT22;1838;50.742;7.158;2024-03-07T06:16:55;5.50;99.90
3644;DHT22;1838;50.742;7.158;2024-03-07T06:19:23;5.60;99.90
3644;DHT22;1838;50.742;7.158;2024-03-07T06:21:49;5.60;99.90
3644;DHT22;1838;50.742;7.158;2024-03-07T06:24:14;5.60;99.90
3644;DHT22;1838;50.742;7.158;2024-03-07T06:26:42;5.70;99.90
3644;DHT22;1838;50.742;7.158;2024-03-07T06:29:29;5.70;99.90
3644;DHT22;1838;50.742;7.158;2024-03-07T06:31:54;5.60;99.90
3644;DHT22;1838;50.742;7.158;2024-03-07T06:34:20;5.60;99.90
3644;DHT22;1838;50.742;7.158;2024-03-07T06:36:46;5.60;99.90
3644;DHT22;1838;50.742;7.158;2024-03-07T06:39:11;5.60;99.90
3644;DHT22;1838;50.742;7.158;2024-03-07T06:41:37;5.60;99.90
3644;DHT22;1838;50.742;7.158;2024-03-07T06:44:03;5.60;99.90
3644;DHT22;1838;50.742;7.158;2024-03-07T06:46:29;5.60;99.90
3644;DHT22;1838;50.742;7.158;2024-03-07T06:48:55;5.70;99.90
3644;DHT22;1838;50.742;7.158;2024-03-07T06:51:23;5.70;99.90
3644;DHT22;1838;50.742;7.158;2024-03-07T06:53:50;5.80;99.90
3644;DHT22;1838;50.742;7.158;2024-03-07T06:56:16;5.80;99.90
3644;DHT22;1838;50.742;7.158;2024-03-07T06:58:42;5.80;99.90
3644;DHT22;1838;50.742;7.158;2024-03-07T07:01:08;5.80;99.90
3644;DHT22;1838;50.742;7.158;2024-03-07T07:03:36;5.80;99.90
3644;DHT22;1838;50.742;7.158;2024-03-07T07:06:02;5.80;99.90
3644;DHT22;1838;50.742;7.158;2024-03-07T07:08:28;5.70;99.90
3644;DHT22;1838;50.742;7.158;2024-03-07T07:10:56;5.60;99.90
3644;DHT22;1838;50.742;7.158;2024-03-07T07:13:23;5.70;99.90
3644;DHT22;1838;50.742;7.158;2024-03-07T07:15:52;5.70;99.90
3644;DHT22;1838;50.742;7.158;2024-03-07T07:18:18;5.70;99.90
3644;DHT22;1838;50.742;7.158;2024-03-07T07:20:44;5.70;99.90
3644;DHT22;1838;50.742;7.158;2024-03-07T07:23:09;5.70;99.90
3644;DHT22;1838;50.742;7.158;2024-03-07T07:25:35;5.80;99.90
3644;DHT22;1838;50.742;7.158;2024-03-07T07:28:01;5.80;99.90
3644;DHT22;1838;50.742;7.158;2024-03-07T07:30:29;5.80;99.90
3644;DHT22;1838;50.742;7.158;2024-03-07T07:32:55;5.70;99.90
3644;DHT22;1838;50.742;7.158;2024-03-07T07:35:21;5.60;99.90
3644;DHT22;1838;50.742;7.158;2024-03-07T07:37:51;5.60;99.90
3644;DHT22;1838;50.742;7.158;2024-03-07T07:40:21;5.50;99.90
3644;DHT22;1838;50.742;7.158;2024-03-07T07:42:50;5.50;99.90
3644;DHT22;1838;50.742;7.158;2024-03-07T07:45:20;5.50;99.90
3644;DHT22;1838;50.742;7.158;2024-03-07T07:47:49;5.50;99.90
3644;DHT22;1838;50.742;7.158;2024-03-07T07:50:16;5.50;99.90
3644;DHT22;1838;50.742;7.158;2024-03-07T07:52:52;5.50;99.90
3644;DHT22;1838;50.742;7.158;2024-03-07T07:55:25;5.50;99.90
3644;DHT22;1838;50.742;7.158;2024-03-07T07:57:52;5.50;99.90
3644;DHT22;1838;50.742;7.158;2024-03-07T08:00:19;5.60;99.90
3644;DHT22;1838;50.742;7.158;2024-03-07T08:02:52;5.60;99.90
3644;DHT22;1838;50.742;7.158;2024-03-07T08:05:22;5.70;99.90
3644;DHT22;1838;50.742;7.158;2024-03-07T08:07:50;5.80;99.90
3644;DHT22;1838;50.742;7.158;2024-03-07T08:10:17;5.80;99.90
3644;DHT22;1838;50.742;7.158;2024-03-07T08:12:43;5.90;99.90
3644;DHT22;1838;50.742;7.158;2024-03-07T08:15:10;5.90;99.90
3644;DHT22;1838;50.742;7.158;2024-03-07T08:17:46;6.00;99.90
3644;DHT22;1838;50.742;7.158;2024-03-07T08:20:16;6.10;99.90
3644;DHT22;1838;50.742;7.158;2024-03-07T08:22:43;6.20;99.90
3644;DHT22;1838;50.742;7.158;2024-03-07T08:25:10;6.30;99.90
3644;DHT22;1838;50.742;7.158;2024-03-07T08:27:40;6.40;99.90
3644;DHT22;1838;50.742;7.158;2024-03-07T08:30:08;6.60;99.90
3644;DHT22;1838;50.742;7.158;2024-03-07T08:32:39;6.70;99.90
3644;DHT22;1838;50.742;7.158;2024-03-07T08:35:05;6.90;99.90
3644;DHT22;1838;50.742;7.158;2024-03-07T08:37:45;7.10;99.90
3644;DHT22;1838;50.742;7.158;2024-03-07T08:40:11;7.30;99.90
3644;DHT22;1838;50.742;7.158;2024-03-07T08:42:45;7.50;99.90
3644;DHT22;1838;50.742;7.158;2024-03-07T08:45:11;7.70;99.90
3644;DHT22;1838;50.742;7.158;2024-03-07T08:47:37;7.80;99.90
3644;DHT22;1838;50.742;7.158;2024-03-07T08:50:04;8.00;99.90
3644;DHT22;1838;50.742;7.158;2024-03-07T08:52:33;8.10;99.90
3644;DHT22;1838;50.742;7.158;2024-03-07T08:55:00;8.20;99.90
3644;DHT22;1838;50.742;7.158;2024-03-07T08:57:25;8.20;99.90
3644;DHT22;1838;50.742;7.158;2024-03-07T08:59:51;8.20;99.90
3644;DHT22;1838;50.742;7.158;2024-03-07T09:02:16;8.10;99.90
3644;DHT22;1838;50.742;7.158;2024-03-07T09:04:42;8.10;99.90
3644;DHT22;1838;50.742;7.158;2024-03-07T09:07:07;8.10;99.90
3644;DHT22;1838;50.742;7.158;2024-03-07T09:09:33;8.20;99.90
3644;DHT22;1838;50.742;7.158;2024-03-07T09:12:00;8.20;99.90
3644;DHT22;1838;50.742;7.158;2024-03-07T09:14:30;8.20;99.90
3644;DHT22;1838;50.742;7.158;2024-03-07T09:16:56;8.30;99.90
3644;DHT22;1838;50.742;7.158;2024-03-07T09:19:22;8.30;99.90
3644;DHT22;1838;50.742;7.158;2024-03-07T09:21:51;8.30;99.90
3644;DHT22;1838;50.742;7.158;2024-03-07T09:24:18;8.40;99.90
3644;DHT22;1838;50.742;7.158;2024-03-07T09:26:47;8.60;99.90
3644;DHT22;1838;50.742;7.158;2024-03-07T09:29:14;8.70;99.90
3644;DHT22;1838;50.742;7.158;2024-03-07T09:31:39;8.90;99.90
3644;DHT22;1838;50.742;7.158;2024-03-07T09:34:05;8.90;99.90
3644;DHT22;1838;50.742;7.158;2024-03-07T09:36:31;8.70;99.90
3644;DHT22;1838;50.742;7.158;2024-03-07T09:38:56;8.70;99.90
3644;DHT22;1838;50.742;7.158;2024-03-07T09:41:23;8.60;99.90
3644;DHT22;1838;50.742;7.158;2024-03-07T09:43:52;8.50;99.90
3644;DHT22;1838;50.742;7.158;2024-03-07T09:46:23;8.40;99.90
3644;DHT22;1838;50.742;7.158;2024-03-07T09:48:50;8.40;99.90
3644;DHT22;1838;50.742;7.158;2024-03-07T09:51:20;8.30;99.90
3644;DHT22;1838;50.742;7.158;2024-03-07T09:53:48;8.30;99.90
3644;DHT22;1838;50.742;7.158;2024-03-07T09:56:17;8.40;99.90
3644;DHT22;1838;50.742;7.158;2024-03-07T09:58:49;8.40;99.90
3644;DHT22;1838;50.742;7.158;2024-03-07T10:01:15;8.50;99.90
3644;DHT22;1838;50.742;7.158;2024-03-07T10:03:43;8.60;99.90
3644;DHT22;1838;50.742;7.158;2024-03-07T10:06:10;8.70;99.90
3644;DHT22;1838;50.742;7.158;2024-03-07T10:08:36;8.70;99.90
3644;DHT22;1838;50.742;7.158;2024-03-07T10:11:02;8.70;99.90
3644;DHT22;1838;50.742;7.158;2024-03-07T10:13:28;8.70;99.90
3644;DHT22;1838;50.742;7.158;2024-03-07T10:15:56;8.90;99.90
3644;DHT22;1838;50.742;7.158;2024-03-07T10:18:25;8.90;99.90
3644;DHT22;1838;50.742;7.158;2024-03-07T10:20:53;8.90;99.90
3644;DHT22;1838;50.742;7.158;2024-03-07T10:23:19;9.00;99.90
3644;DHT22;1838;50.742;7.158;2024-03-07T10:25:46;9.10;99.90
3644;DHT22;1838;50.742;7.158;2024-03-07T10:28:12;9.20;99.90
3644;DHT22;1838;50.742;7.158;2024-03-07T10:30:41;9.40;99.90
3644;DHT22;1838;50.742;7.158;2024-03-07T10:33:09;9.60;99.90
3644;DHT22;1838;50.742;7.158;2024-03-07T10:35:36;9.60;99.90
3644;DHT22;1838;50.742;7.158;2024-03-07T10:38:02;9.60;99.90
3644;DHT22;1838;50.742;7.158;2024-03-07T10:40:37;9.80;99.90
3644;DHT22;1838;50.742;7.158;2024-03-07T10:43:10;10.00;99.90
3644;DHT22;1838;50.742;7.158;2024-03-07T10:45:46;10.20;99.90
3644;DHT22;1838;50.742;7.158;2024-03-07T10:48:12;10.20;99.90
3644;DHT22;1838;50.742;7.158;2024-03-07T10:53:46;10.00;99.90
3644;DHT22;1838;50.742;7.158;2024-03-07T10:59:18;9.90;99.90
3644;DHT22;1838;50.742;7.158;2024-03-07T11:04:50;10.30;99.90
3644;DHT22;1838;50.742;7.158;2024-03-07T11:07:18;10.50;99.90
3644;DHT22;1838;50.742;7.158;2024-03-07T11:09:47;10.70;99.90
3644;DHT22;1838;50.742;7.158;2024-03-07T11:12:14;10.80;99.90
3644;DHT22;1838;50.742;7.158;2024-03-07T11:14:41;10.80;99.90
3644;DHT22;1838;50.742;7.158;2024-03-07T11:17:09;10.70;99.90
3644;DHT22;1838;50.742;7.158;2024-03-07T11:19:35;10.50;99.90
3644;DHT22;1838;50.742;7.158;2024-03-07T11:22:02;10.50;99.90
3644;DHT22;1838;50.742;7.158;2024-03-07T11:24:28;10.50;99.90
3644;DHT22;1838;50.742;7.158;2024-03-07T11:26:55;10.40;99.90
3644;DHT22;1838;50.742;7.158;2024-03-07T11:29:39;10.30;99.90
3644;DHT22;1838;50.742;7.158;2024-03-07T11:32:15;10.50;99.90
3644;DHT22;1838;50.742;7.158;2024-03-07T11:34:43;10.40;99.90
3644;DHT22;1838;50.742;7.158;2024-03-07T11:37:19;10.50;99.90
3644;DHT22;1838;50.742;7.158;2024-03-07T11:39:49;10.60;99.90
3644;DHT22;1838;50.742;7.158;2024-03-07T11:42:28;10.70;99.90
3644;DHT22;1838;50.742;7.158;2024-03-07T11:44:54;10.80;99.90
3644;DHT22;1838;50.742;7.158;2024-03-07T11:47:24;10.80;99.90
3644;DHT22;1838;50.742;7.158;2024-03-07T11:49:51;10.80;99.90
3644;DHT22;1838;50.742;7.158;2024-03-07T11:52:18;10.90;99.90
3644;DHT22;1838;50.742;7.158;2024-03-07T11:54:44;11.00;99.90
3644;DHT22;1838;50.742;7.158;2024-03-07T11:57:16;11.10;99.90
3644;DHT22;1838;50.742;7.158;2024-03-07T11:59:42;11.30;99.90
3644;DHT22;1838;50.742;7.158;2024-03-07T12:02:15;11.50;99.90
3644;DHT22;1838;50.742;7.158;2024-03-07T12:04:44;11.60;99.90
3644;DHT22;1838;50.742;7.158;2024-03-07T12:07:10;11.70;99.90
3644;DHT22;1838;50.742;7.158;2024-03-07T12:09:43;11.70;99.90
3644;DHT22;1838;50.742;7.158;2024-03-07T12:12:11;11.70;99.90
3644;DHT22;1838;50.742;7.158;2024-03-07T12:14:37;11.50;99.90
3644;DHT22;1838;50.742;7.158;2024-03-07T12:17:04;11.30;99.90
3644;DHT22;1838;50.742;7.158;2024-03-07T12:19:34;11.30;99.90
3644;DHT22;1838;50.742;7.158;2024-03-07T12:22:03;11.40;99.90
3644;DHT22;1838;50.742;7.158;2024-03-07T12:24:40;11.60;99.90
3644;DHT22;1838;50.742;7.158;2024-03-07T12:27:10;11.60;99.90
3644;DHT22;1838;50.742;7.158;2024-03-07T12:29:37;11.70;99.90
3644;DHT22;1838;50.742;7.158;2024-03-07T12:32:07;11.70;99.90
3644;DHT22;1838;50.742;7.158;2024-03-07T12:34:43;11.40;99.90
3644;DHT22;1838;50.742;7.158;2024-03-07T12:37:11;11.20;99.90
3644;DHT22;1838;50.742;7.158;2024-03-07T12:39:41;11.10;99.90
3644;DHT22;1838;50.742;7.158;2024-03-07T12:42:15;11.00;99.90
3644;DHT22;1838;50.742;7.158;2024-03-07T12:44:47;10.90;99.90
3644;DHT22;1838;50.742;7.158;2024-03-07T12:47:13;10.90;99.90
3644;DHT22;1838;50.742;7.158;2024-03-07T12:49:40;11.00;99.90
3644;DHT22;1838;50.742;7.158;2024-03-07T12:52:05;11.00;99.90
3644;DHT22;1838;50.742;7.158;2024-03-07T12:54:34;11.00;99.90
3644;DHT22;1838;50.742;7.158;2024-03-07T12:56:59;11.00;99.90
3644;DHT22;1838;50.742;7.158;2024-03-07T12:59:25;11.00;99.90
3644;DHT22;1838;50.742;7.158;2024-03-07T13:01:51;11.00;99.90
3644;DHT22;1838;50.742;7.158;2024-03-07T13:04:16;10.90;99.90
3644;DHT22;1838;50.742;7.158;2024-03-07T13:06:42;10.70;99.90
3644;DHT22;1838;50.742;7.158;2024-03-07T13:09:12;10.60;99.90
3644;DHT22;1838;50.742;7.158;2024-03-07T13:11:40;10.60;99.90
3644;DHT22;1838;50.742;7.158;2024-03-07T13:14:13;10.50;99.90
3644;DHT22;1838;50.742;7.158;2024-03-07T13:16:39;10.50;99.90
3644;DHT22;1838;50.742;7.158;2024-03-07T13:19:04;10.40;99.90
3644;DHT22;1838;50.742;7.158;2024-03-07T13:21:31;10.40;99.90
3644;DHT22;1838;50.742;7.158;2024-03-07T13:23:57;10.20;99.90
3644;DHT22;1838;50.742;7.158;2024-03-07T13:26:23;10.20;99.90
3644;DHT22;1838;50.742;7.158;2024-03-07T13:28:51;10.20;99.90
3644;DHT22;1838;50.742;7.158;2024-03-07T13:31:18;10.20;99.90
3644;DHT22;1838;50.742;7.158;2024-03-07T13:33:45;10.10;99.90
3644;DHT22;1838;50.742;7.158;2024-03-07T13:36:10;10.10;99.90
3644;DHT22;1838;50.742;7.158;2024-03-07T13:38:36;10.20;99.90
3644;DHT22;1838;50.742;7.158;2024-03-07T13:41:03;10.20;99.90
3644;DHT22;1838;50.742;7.158;2024-03-07T13:43:32;10.20;99.90
3644;DHT22;1838;50.742;7.158;2024-03-07T13:46:00;10.10;99.90
3644;DHT22;1838;50.742;7.158;2024-03-07T13:48:26;10.10;99.90
3644;DHT22;1838;50.742;7.158;2024-03-07T13:50:51;10.10;99.90
3644;DHT22;1838;50.742;7.158;2024-03-07T13:53:19;10.20;99.90
3644;DHT22;1838;50.742;7.158;2024-03-07T14:01:28;10.30;99.90
3644;DHT22;1838;50.742;7.158;2024-03-07T14:04:20;10.30;99.90
3644;DHT22;1838;50.742;7.158;2024-03-07T14:20:21;10.50;99.90
3644;DHT22;1838;50.742;7.158;2024-03-07T14:25:29;10.50;99.90
3644;DHT22;1838;50.742;7.158;2024-03-07T14:28:42;10.30;99.90
3644;DHT22;1838;50.742;7.158;2024-03-07T14:31:13;10.20;99.90
3644;DHT22;1838;50.742;7.158;2024-03-07T14:36:34;10.00;99.90
3644;DHT22;1838;50.742;7.158;2024-03-07T14:39:01;9.90;99.90
3644;DHT22;1838;50.742;7.158;2024-03-07T14:44:17;9.80;99.90
3644;DHT22;1838;50.742;7.158;2024-03-07T14:46:43;9.80;99.90
3644;DHT22;1838;50.742;7.158;2024-03-07T14:49:17;9.80;99.90
3644;DHT22;1838;50.742;7.158;2024-03-07T14:51:42;9.80;99.90
3644;DHT22;1838;50.742;7.158;2024-03-07T14:54:09;9.80;99.90
3644;DHT22;1838;50.742;7.158;2024-03-07T14:56:35;9.80;99.90
3644;DHT22;1838;50.742;7.158;2024-03-07T14:59:01;9.80;99.90
3644;DHT22;1838;50.742;7.158;2024-03-07T15:01:31;9.90;99.90
3644;DHT22;1838;50.742;7.158;2024-03-07T15:03:58;9.90;99.90
3644;DHT22;1838;50.742;7.158;2024-03-07T15:06:24;9.90;99.90
3644;DHT22;1838;50.742;7.158;2024-03-07T15:08:49;9.90;99.90
3644;DHT22;1838;50.742;7.158;2024-03-07T15:11:34;9.90;99.90
3644;DHT22;1838;50.742;7.158;2024-03-07T15:14:00;9.90;99.90
3644;DHT22;1838;50.742;7.158;2024-03-07T15:16:27;9.90;99.90
3644;DHT22;1838;50.742;7.158;2024-03-07T15:18:54;9.90;99.90
3644;DHT22;1838;50.742;7.158;2024-03-07T15:21:19;9.90;99.90
3644;DHT22;1838;50.742;7.158;2024-03-07T15:23:46;9.90;99.90
3644;DHT22;1838;50.742;7.158;2024-03-07T15:26:11;9.90;99.90
3644;DHT22;1838;50.742;7.158;2024-03-07T15:28:37;9.90;99.90
